Time;durP1;ratioP1;P1;durP2;ratioP2;P2;SDS_P1;SDS_P2;PMS_P1;PMS_P2;Temp;Humidity;BMP_temperature;BMP_pressure;BME280_temperature;BME280_humidity;BME280_pressure;Samples;Min_cycle;Max_cycle;Signal;HPM_P1;HPM_P2
2023/10/13 00:02:04;;;;;;;40.33;20.52;;;410.20;2355.20;;;;;;5081570;28;20039;-58
2023/10/13 00:04:35;;;;;;;27.83;15.32;;;410.20;2355.20;;;;;;5089353;28;20389;-57
2023/10/13 00:07:02;;;;;;;15.18;9.15;;;410.10;2355.20;;;;;;5090414;28;20028;-57
2023/10/13 00:09:37;;;;;;;17.77;11.85;;;410.00;2355.20;;;;;;5086526;28;20025;-55
2023/10/13 00:12:13;;;;;;;50.67;32.42;;;410.00;2355.20;;;;;;5087877;28;20032;-55
2023/10/13 00:14:41;;;;;;;51.83;30.08;;;410.00;2355.20;;;;;;5069638;28;20035;-57
2023/10/13 00:17:07;;;;;;;35.45;19.95;;;409.90;2355.20;;;;;;5080668;28;20450;-59
2023/10/13 00:19:38;;;;;;;27.05;15.88;;;409.90;2355.20;;;;;;5074380;28;20695;-58
2023/10/13 00:22:11;;;;;;;54.13;31.00;;;409.90;2355.20;;;;;;5072353;28;20036;-58
2023/10/13 00:24:47;;;;;;;38.55;23.83;;;409.90;2355.20;;;;;;5072966;28;20017;-61
2023/10/13 00:27:29;;;;;;;75.00;40.03;;;409.90;2355.20;;;;;;5073613;28;20013;-57
2023/10/13 00:32:47;;;;;;;273.92;141.10;;;409.90;2355.20;;;;;;5071218;28;20071;-59
2023/10/13 00:35:24;;;;;;;254.50;123.00;;;410.00;2355.20;;;;;;5089197;28;20036;-59
2023/10/13 00:37:53;;;;;;;423.67;215.50;;;410.00;2355.20;;;;;;5078327;28;20024;-57
2023/10/13 00:40:53;;;;;;;61.55;30.52;;;410.00;2355.20;;;;;;5090062;28;20035;-58
2023/10/13 00:45:48;;;;;;;24.20;13.37;;;410.10;2355.20;;;;;;5089700;28;20535;-59
2023/10/13 00:48:15;;;;;;;12.55;7.53;;;410.00;2355.20;;;;;;5089607;28;20031;-60
2023/10/13 00:50:45;;;;;;;11.57;7.03;;;409.70;2355.20;;;;;;5090009;28;20024;-60
2023/10/13 00:53:12;;;;;;;15.60;9.60;;;409.60;2355.20;;;;;;5088937;28;20020;-56
2023/10/13 00:55:41;;;;;;;21.08;10.90;;;409.60;2355.20;;;;;;5080564;28;20032;-57
2023/10/13 00:58:11;;;;;;;13.82;8.43;;;409.60;2355.20;;;;;;5084500;28;20024;-58
2023/10/13 01:00:47;;;;;;;19.08;9.15;;;409.60;2355.20;;;;;;5089283;28;20028;-58
2023/10/13 01:03:13;;;;;;;15.85;8.68;;;409.60;2355.20;;;;;;5089007;28;20024;-59
2023/10/13 01:05:40;;;;;;;18.63;8.13;;;409.70;2355.20;;;;;;5089764;28;20028;-58
2023/10/13 01:08:10;;;;;;;17.67;9.05;;;409.60;2355.20;;;;;;5089246;28;20035;-57
2023/10/13 01:10:37;;;;;;;16.85;7.75;;;409.60;2355.20;;;;;;5089764;28;20032;-56
2023/10/13 01:13:04;;;;;;;15.15;7.35;;;409.60;2355.20;;;;;;5089457;28;20149;-58
2023/10/13 01:15:32;;;;;;;10.05;6.13;;;409.60;2355.20;;;;;;5070900;28;20535;-60
2023/10/13 01:18:16;;;;;;;17.38;7.63;;;384.80;2329.60;;;;;;5089263;28;20034;-60
2023/10/13 01:20:46;;;;;;;16.23;7.57;;;384.80;2329.60;;;;;;5089434;28;20031;-59
2023/10/13 01:23:19;;;;;;;13.15;7.82;;;384.90;2329.60;;;;;;5089673;28;20020;-58
2023/10/13 01:25:45;;;;;;;16.17;7.23;;;384.90;2329.60;;;;;;5083348;28;20021;-56
2023/10/13 01:28:16;;;;;;;10.50;6.30;;;384.90;2329.60;;;;;;5069321;28;20266;-59
2023/10/13 01:30:52;;;;;;;11.40;7.07;;;384.90;2329.60;;;;;;5082405;28;20123;-56
2023/10/13 01:33:26;;;;;;;11.13;7.70;;;409.60;2355.20;;;;;;5081798;28;20036;-59
2023/10/13 01:35:55;;;;;;;9.20;6.65;;;384.90;2329.60;;;;;;5076415;28;20485;-59
2023/10/13 01:38:20;;;;;;;10.63;5.93;;;384.80;2329.60;;;;;;5088954;28;20027;-56
2023/10/13 01:40:51;;;;;;;8.90;5.55;;;384.90;2329.60;;;;;;5088775;28;20016;-57
2023/10/13 01:43:17;;;;;;;11.60;5.88;;;384.80;2329.60;;;;;;5089058;28;20024;-59
2023/10/13 01:45:47;;;;;;;10.50;7.63;;;384.70;2329.60;;;;;;5089170;28;20024;-58
2023/10/13 01:48:21;;;;;;;15.38;10.15;;;384.50;2329.60;;;;;;5089317;28;20375;-56
2023/10/13 01:51:23;;;;;;;13.18;7.40;;;384.30;2329.60;;;;;;5088877;28;20027;-56
2023/10/13 01:53:41;;;;;;;12.82;6.90;;;384.20;2329.60;;;;;;5084019;28;20102;-56
2023/10/13 01:56:10;;;;;;;10.88;6.55;;;384.00;2329.60;;;;;;5088592;28;20043;-58
2023/10/13 01:58:47;;;;;;;10.40;6.03;;;384.10;2329.60;;;;;;5082251;28;20255;-58
2023/10/13 02:01:13;;;;;;;9.65;6.40;;;384.20;2329.60;;;;;;5084485;28;20036;-60
2023/10/13 02:03:46;;;;;;;10.50;5.57;;;384.30;2329.60;;;;;;5088528;28;20095;-56
2023/10/13 02:06:17;;;;;;;11.48;6.60;;;384.40;2329.60;;;;;;5088253;28;20103;-57
2023/10/13 02:08:44;;;;;;;9.27;6.35;;;384.50;2329.60;;;;;;5071636;28;20046;-59
2023/10/13 02:11:10;;;;;;;11.43;5.82;;;384.50;2329.60;;;;;;5088781;28;20548;-58
2023/10/13 02:13:48;;;;;;;10.20;6.28;;;384.50;2329.60;;;;;;5070104;28;20119;-59
2023/10/13 02:16:18;;;;;;;16.40;7.50;;;384.50;2329.60;;;;;;5088440;28;20132;-58
2023/10/13 02:18:44;;;;;;;16.33;8.25;;;384.40;2329.60;;;;;;5088391;28;20024;-60
2023/10/13 02:21:13;;;;;;;11.55;6.80;;;384.50;2329.60;;;;;;5088925;28;20114;-58
2023/10/13 02:23:59;;;;;;;9.38;6.65;;;384.50;2329.60;;;;;;5088751;28;20039;-57
2023/10/13 02:26:32;;;;;;;15.07;6.10;;;384.60;2329.60;;;;;;5088448;28;20032;-58
2023/10/13 02:29:07;;;;;;;10.55;6.25;;;384.60;2329.60;;;;;;5071856;28;20020;-58
2023/10/13 02:31:38;;;;;;;8.43;5.75;;;384.50;2329.60;;;;;;5079804;28;20044;-58
2023/10/13 02:34:07;;;;;;;11.50;6.32;;;384.40;2329.60;;;;;;5087950;28;20078;-60
2023/10/13 02:36:46;;;;;;;15.82;6.43;;;384.50;2329.60;;;;;;5088626;28;20032;-57
2023/10/13 02:39:13;;;;;;;13.77;6.80;;;384.40;2329.60;;;;;;5088595;28;20102;-57
2023/10/13 02:41:41;;;;;;;10.88;7.15;;;384.50;2329.60;;;;;;5088396;28;20024;-57
2023/10/13 02:44:11;;;;;;;9.48;6.85;;;384.50;2329.60;;;;;;5088298;28;20024;-55
2023/10/13 02:46:39;;;;;;;19.50;8.00;;;384.40;2329.60;;;;;;5088198;28;20032;-56
2023/10/13 02:49:10;;;;;;;13.23;5.90;;;384.50;2329.60;;;;;;5088424;28;20044;-59
2023/10/13 02:51:41;;;;;;;11.60;6.03;;;384.50;2329.60;;;;;;5088020;28;20033;-58
2023/10/13 02:54:11;;;;;;;14.20;7.00;;;384.50;2329.60;;;;;;5088345;28;20496;-57
2023/10/13 02:56:48;;;;;;;10.48;6.35;;;384.50;2329.60;;;;;;5087937;28;20032;-56
2023/10/13 02:59:14;;;;;;;12.35;6.47;;;384.50;2329.60;;;;;;5087893;28;20103;-56
2023/10/13 03:01:40;;;;;;;11.25;5.80;;;384.50;2329.60;;;;;;5088247;28;20067;-58
2023/10/13 03:04:08;;;;;;;14.98;7.07;;;384.50;2329.60;;;;;;5088850;28;20027;-57
2023/10/13 03:06:35;;;;;;;11.82;6.90;;;384.50;2329.60;;;;;;5080139;28;20059;-57
2023/10/13 03:09:18;;;;;;;18.90;6.60;;;384.40;2329.60;;;;;;5084857;28;20055;-57
2023/10/13 03:11:50;;;;;;;14.93;6.13;;;384.40;2329.60;;;;;;5091846;28;20102;-59
2023/10/13 03:14:41;;;;;;;11.85;6.82;;;384.30;2329.60;;;;;;5091382;28;20016;-56
2023/10/13 03:17:08;;;;;;;8.98;5.60;;;384.30;2329.60;;;;;;5091053;28;20497;-58
2023/10/13 03:19:36;;;;;;;11.88;6.85;;;384.30;2329.60;;;;;;5091330;28;20062;-57
2023/10/13 03:22:16;;;;;;;10.68;7.10;;;384.20;2329.60;;;;;;5091546;28;20078;-57
2023/10/13 03:24:48;;;;;;;13.70;6.30;;;384.10;2329.60;;;;;;5091424;28;20016;-57
2023/10/13 03:27:17;;;;;;;12.23;6.43;;;384.10;2329.60;;;;;;5091376;28;20051;-59
2023/10/13 03:29:45;;;;;;;10.57;5.97;;;384.10;2329.60;;;;;;5091138;28;20782;-58
2023/10/13 03:32:12;;;;;;;11.25;6.95;;;384.10;2329.60;;;;;;5091452;28;20036;-56
2023/10/13 03:37:37;;;;;;;12.93;9.15;;;384.20;2329.60;;;;;;5086450;28;20097;-59
2023/10/13 03:43:10;;;;;;;12.60;9.27;;;384.20;2329.60;;;;;;5080992;28;20028;-68
2023/10/13 03:45:47;;;;;;;14.10;9.07;;;384.20;2329.60;;;;;;5090541;28;20470;-58
2023/10/13 03:48:28;;;;;;;11.75;7.20;;;384.20;2329.60;;;;;;5091548;28;20052;-60
2023/10/13 03:51:03;;;;;;;9.55;6.60;;;384.20;2329.60;;;;;;5090983;28;20020;-56
2023/10/13 03:53:33;;;;;;;10.77;7.88;;;384.10;2329.60;;;;;;5091222;28;20039;-59
2023/10/13 03:56:12;;;;;;;12.07;7.53;;;384.10;2329.60;;;;;;5090754;28;20051;-58
2023/10/13 03:58:53;;;;;;;14.48;7.93;;;384.20;2329.60;;;;;;5090456;28;20104;-58
2023/10/13 04:01:31;;;;;;;12.50;5.78;;;384.20;2329.60;;;;;;5091327;28;20062;-57
2023/10/13 04:04:04;;;;;;;14.95;7.78;;;384.20;2329.60;;;;;;5090747;28;20449;-59
2023/10/13 04:06:51;;;;;;;13.60;7.25;;;384.10;2329.60;;;;;;5090663;28;20028;-58
2023/10/13 04:17:29;;;;;;;17.92;8.18;;;384.20;2329.60;;;;;;5066051;28;20132;-57
2023/10/13 04:28:34;;;;;;;18.65;13.90;;;384.20;2329.60;;;;;;5080828;28;20185;-57
2023/10/13 04:31:11;;;;;;;14.55;10.27;;;384.20;2329.60;;;;;;5090039;28;20059;-59
2023/10/13 04:33:51;;;;;;;17.08;11.52;;;384.10;2329.60;;;;;;5090286;28;20117;-59
2023/10/13 04:36:45;;;;;;;19.67;13.07;;;384.00;2329.60;;;;;;5089745;28;20031;-59
2023/10/13 04:41:41;;;;;;;12.90;9.38;;;384.10;2329.60;;;;;;5083151;28;20054;-57
2023/10/13 04:46:54;;;;;;;15.85;8.07;;;384.00;2329.60;;;;;;5090123;28;20035;-58
2023/10/13 04:49:28;;;;;;;12.85;7.60;;;384.00;2329.60;;;;;;5089800;28;20409;-59
2023/10/13 04:51:59;;;;;;;16.10;7.90;;;359.30;2329.60;;;;;;5089590;28;20382;-58
2023/10/13 05:51:43;;;;;;;12.73;9.27;;;409.70;2355.20;;;;;;5077402;28;20016;-58
2023/10/13 06:29:36;;;;;;;18.77;9.27;;;614.60;2406.40;;;;;;5073168;28;20094;-66
2023/10/13 06:32:10;;;;;;;14.55;9.15;;;615.00;2304.00;;;;;;5078507;28;20037;-69
2023/10/13 06:34:44;;;;;;;14.18;9.27;;;615.10;2252.80;;;;;;5079178;28;20475;-67
2023/10/13 06:37:23;;;;;;;16.85;10.27;;;615.10;2227.20;;;;;;5079718;28;20448;-69
2023/10/13 06:39:56;;;;;;;13.10;9.05;;;614.60;2252.80;;;;;;5075228;28;20055;-67
2023/10/13 06:42:28;;;;;;;19.20;10.13;;;589.20;2329.60;;;;;;5084186;28;20424;-68
2023/10/13 06:44:55;;;;;;;15.65;9.40;;;589.00;2355.20;;;;;;5077457;28;20017;-70
2023/10/13 06:47:25;;;;;;;14.95;10.82;;;564.10;2380.80;;;;;;5082795;28;20024;-70
2023/10/13 06:49:51;;;;;;;14.90;10.98;;;563.90;2406.40;;;;;;5079354;28;20137;-70
2023/10/13 06:52:22;;;;;;;28.85;12.23;;;563.80;2432.00;;;;;;5077593;28;20056;-69
2023/10/13 06:54:51;;;;;;;18.48;11.23;;;563.60;2432.00;;;;;;5086411;28;20024;-67
2023/10/13 06:57:23;;;;;;;22.25;9.90;;;563.60;2432.00;;;;;;5082275;28;20921;-71
2023/10/13 06:59:49;;;;;;;14.27;10.48;;;563.40;2432.00;;;;;;5079620;28;20020;-68
2023/10/13 07:02:21;;;;;;;14.25;9.80;;;563.50;2432.00;;;;;;5077373;28;20051;-67
2023/10/13 07:07:48;;;;;;;18.80;10.77;;;589.70;2329.60;;;;;;5038044;28;20068;-68
2023/10/13 07:10:14;;;;;;;14.85;9.95;;;640.00;2201.60;;;;;;5035980;28;20025;-69
2023/10/13 07:12:43;;;;;;;16.92;11.18;;;640.90;2150.40;;;;;;5041217;28;20037;-71
2023/10/13 07:17:45;;;;;;;22.50;10.57;;;691.70;2022.40;;;;;;5044438;28;20103;-68
2023/10/13 07:20:15;;;;;;;15.93;12.45;;;742.50;1945.60;;;;;;5037703;28;20075;-68
2023/10/13 07:25:32;;;;;;;23.90;13.05;;;793.90;1792.00;;;;;;5035639;28;20104;-68
2023/10/13 07:28:03;;;;;;;16.83;12.82;;;819.40;1740.80;;;;;;5029825;28;20060;-70
2023/10/13 07:30:31;;;;;;;14.90;12.18;;;844.90;1664.00;;;;;;5036835;28;20102;-69
2023/10/13 07:32:59;;;;;;;14.23;12.73;;;845.20;1638.40;;;;;;5043137;28;20486;-71
2023/10/13 07:35:26;;;;;;;20.17;13.60;;;870.80;1561.60;;;;;;5040846;28;20045;-71
2023/10/13 07:37:54;;;;;;;16.67;13.20;;;871.30;1536.00;;;;;;5037520;28;20053;-71
2023/10/13 07:42:50;;;;;;;20.05;15.05;;;845.30;1587.20;;;;;;5037503;28;20024;-70
2023/10/13 07:45:25;;;;;;;21.63;16.13;;;870.40;1561.60;;;;;;5074323;28;20027;-69
2023/10/13 07:47:54;;;;;;;14.55;12.68;;;871.10;1510.40;;;;;;5077746;28;20036;-71
2023/10/13 07:50:25;;;;;;;18.67;14.63;;;870.90;1510.40;;;;;;5071408;28;20105;-69
2023/10/13 07:53:34;;;;;;;21.65;15.02;;;845.70;1536.00;;;;;;5074402;28;20024;-68
2023/10/13 07:55:40;;;;;;;23.10;16.13;;;870.60;1510.40;;;;;;5066904;28;20147;-70
2023/10/13 07:58:07;;;;;;;21.80;15.75;;;870.60;1510.40;;;;;;5062515;28;20028;-74
2023/10/13 08:06:04;;;;;;;18.20;15.35;;;845.70;1536.00;;;;;;5080826;28;20028;-71
2023/10/13 08:08:40;;;;;;;19.70;15.18;;;871.00;1484.80;;;;;;5082980;28;20162;-71
2023/10/13 08:11:11;;;;;;;22.02;17.90;;;871.10;1484.80;;;;;;5080254;28;20051;-75
2023/10/13 08:13:46;;;;;;;24.08;18.17;;;896.00;1459.20;;;;;;5077401;28;20024;-74
2023/10/13 08:16:22;;;;;;;20.08;16.70;;;871.00;1459.20;;;;;;5081489;28;20063;-73
2023/10/13 08:18:54;;;;;;;21.13;18.10;;;896.10;1459.20;;;;;;5074853;28;20033;-75
2023/10/13 08:21:22;;;;;;;23.15;17.85;;;896.90;1433.60;;;;;;5080007;28;20368;-73
2023/10/13 08:37:28;;;;;;;17.13;15.00;;;896.50;1459.20;;;;;;5089785;28;20401;-74
2023/10/13 08:48:12;;;;;;;15.05;12.82;;;896.50;1433.60;;;;;;5089836;28;20024;-69
2023/10/13 08:53:33;;;;;;;18.38;12.55;;;870.90;1510.40;;;;;;5089770;28;20420;-64
2023/10/13 09:04:22;;;;;;;18.75;12.55;;;845.20;1536.00;;;;;;5078320;28;20049;-63
2023/10/13 09:09:35;;;;;;;16.13;11.05;;;819.40;1561.60;;;;;;5089813;28;20032;-64
2023/10/13 09:12:13;;;;;;;13.75;10.55;;;768.40;1638.40;;;;;;5071345;28;20142;-65
2023/10/13 09:14:44;;;;;;;13.93;10.82;;;743.00;1689.60;;;;;;5089121;28;20019;-70
2023/10/13 09:19:55;;;;;;;20.20;11.23;;;742.90;1715.20;;;;;;5089488;28;20070;-67
2023/10/13 09:22:35;;;;;;;16.95;10.73;;;743.00;1689.60;;;;;;5089125;28;20428;-67
2023/10/13 09:25:05;;;;;;;18.75;11.18;;;743.00;1715.20;;;;;;5088863;28;20024;-64
2023/10/13 09:27:33;;;;;;;15.93;9.70;;;742.90;1715.20;;;;;;5089326;28;20099;-65
2023/10/13 09:32:48;;;;;;;17.20;9.68;;;717.50;1740.80;;;;;;5088741;28;20088;-67
2023/10/13 09:35:27;;;;;;;19.52;10.00;;;717.70;1740.80;;;;;;5086913;28;20023;-66
2023/10/13 09:37:56;;;;;;;19.48;11.10;;;742.60;1740.80;;;;;;5088873;28;20052;-73
2023/10/13 09:40:27;;;;;;;18.20;9.30;;;717.70;1715.20;;;;;;5076185;28;20401;-67
2023/10/13 09:42:55;;;;;;;14.88;8.98;;;742.40;1766.40;;;;;;5084568;28;20024;-66
2023/10/13 09:45:27;;;;;;;15.88;10.15;;;717.50;1766.40;;;;;;5088057;28;20031;-68
2023/10/13 09:47:58;;;;;;;14.38;8.80;;;717.40;1792.00;;;;;;5077620;28;20033;-75
2023/10/13 09:50:33;;;;;;;16.70;8.95;;;717.00;1817.60;;;;;;5076501;28;20039;-75
2023/10/13 09:53:00;;;;;;;12.18;8.82;;;717.00;1792.00;;;;;;5087541;28;20031;-65
2023/10/13 09:55:34;;;;;;;16.95;9.43;;;716.90;1817.60;;;;;;5070368;28;20392;-66
2023/10/13 09:58:11;;;;;;;16.20;10.88;;;717.20;1792.00;;;;;;5088334;28;20135;-65
2023/10/13 10:00:58;;;;;;;15.00;9.27;;;716.90;1817.60;;;;;;5088460;28;20424;-74
2023/10/13 10:03:39;;;;;;;13.75;8.80;;;692.10;1817.60;;;;;;5077558;28;20036;-67
2023/10/13 10:06:14;;;;;;;19.73;8.98;;;692.10;1817.60;;;;;;5069975;28;20028;-68
2023/10/13 10:08:48;;;;;;;15.82;9.27;;;692.10;1817.60;;;;;;5088599;28;20032;-67
2023/10/13 10:11:26;;;;;;;13.15;9.27;;;691.70;1817.60;;;;;;5088454;28;20040;-67
2023/10/13 10:13:57;;;;;;;17.85;10.65;;;691.80;1817.60;;;;;;5089431;28;20058;-68
2023/10/13 10:16:49;;;;;;;20.70;9.65;;;691.70;1817.60;;;;;;5092317;28;20097;-65
2023/10/13 10:19:14;;;;;;;15.48;8.20;;;691.60;1843.20;;;;;;5086436;28;20050;-66
2023/10/13 10:21:41;;;;;;;16.80;7.88;;;691.70;1792.00;;;;;;5084787;28;20028;-72
2023/10/13 10:24:41;;;;;;;11.10;8.10;;;692.00;1766.40;;;;;;5088870;28;20091;-64
2023/10/13 10:27:06;;;;;;;16.60;9.95;;;692.10;1766.40;;;;;;5088746;28;20075;-67
2023/10/13 10:29:32;;;;;;;17.73;9.40;;;691.90;1817.60;;;;;;5085577;28;20060;-62
2023/10/13 10:31:58;;;;;;;21.70;10.57;;;691.70;1817.60;;;;;;5071268;28;20037;-68
2023/10/13 10:34:32;;;;;;;17.35;10.60;;;691.60;1868.80;;;;;;5083223;28;20067;-65
2023/10/13 10:36:59;;;;;;;19.83;9.75;;;691.60;1817.60;;;;;;5074268;28;20079;-68
2023/10/13 10:39:45;;;;;;;21.80;9.55;;;691.60;1843.20;;;;;;5077254;28;20047;-67
2023/10/13 10:42:15;;;;;;;15.75;11.25;;;691.70;1843.20;;;;;;5087047;28;20127;-69
2023/10/13 10:44:44;;;;;;;18.17;11.48;;;691.60;1843.20;;;;;;5091851;28;20066;-69
2023/10/13 10:47:11;;;;;;;17.23;10.73;;;691.60;1817.60;;;;;;5088308;28;20024;-73
2023/10/13 10:49:41;;;;;;;19.45;10.02;;;691.50;1843.20;;;;;;5091010;28;20020;-72
2023/10/13 10:52:18;;;;;;;14.95;9.85;;;691.70;1843.20;;;;;;5079039;28;20104;-74
2023/10/13 10:54:48;;;;;;;16.98;9.82;;;691.70;1817.60;;;;;;5090243;28;20020;-69
2023/10/13 10:57:17;;;;;;;19.83;11.13;;;691.40;1843.20;;;;;;5086522;28;20028;-72
2023/10/13 10:59:44;;;;;;;21.25;10.93;;;691.80;1868.80;;;;;;5082129;28;20027;-75
2023/10/13 11:02:15;;;;;;;22.95;11.65;;;691.50;1868.80;;;;;;5082978;28;20045;-73
2023/10/13 11:04:50;;;;;;;17.05;10.27;;;691.30;1868.80;;;;;;5090655;28;20020;-64
2023/10/13 11:07:27;;;;;;;16.02;9.93;;;691.30;1868.80;;;;;;5087872;28;20020;-71
2023/10/13 11:09:57;;;;;;;19.38;9.95;;;691.30;1868.80;;;;;;5088667;28;20494;-74
2023/10/13 11:12:29;;;;;;;18.15;9.73;;;691.30;1868.80;;;;;;5090093;28;20111;-74
2023/10/13 11:15:33;;;;;;;16.35;9.85;;;691.40;1868.80;;;;;;5089850;28;20091;-73
2023/10/13 11:17:59;;;;;;;16.33;10.48;;;691.60;1868.80;;;;;;5083450;28;20683;-69
2023/10/13 11:20:33;;;;;;;20.55;10.85;;;691.40;1868.80;;;;;;5082706;28;20027;-75
2023/10/13 11:23:00;;;;;;;18.75;10.02;;;691.30;1843.20;;;;;;5090037;28;20027;-75
2023/10/13 11:25:34;;;;;;;15.40;8.98;;;691.40;1843.20;;;;;;5089148;28;20035;-71
2023/10/13 11:28:20;;;;;;;15.73;9.07;;;691.40;1817.60;;;;;;5083804;28;20047;-73
2023/10/13 11:30:50;;;;;;;14.05;8.60;;;691.20;1792.00;;;;;;5079278;28;20048;-76
2023/10/13 11:33:19;;;;;;;15.38;9.07;;;691.30;1792.00;;;;;;5089923;28;20054;-75
2023/10/13 11:38:26;;;;;;;15.60;9.60;;;691.30;1792.00;;;;;;5081326;28;20105;-73
2023/10/13 11:41:12;;;;;;;16.58;8.45;;;691.30;1766.40;;;;;;5073918;28;20028;-73
2023/10/13 11:46:16;;;;;;;14.20;9.27;;;691.50;1766.40;;;;;;5072828;28;20043;-75
2023/10/13 11:48:44;;;;;;;15.25;7.82;;;691.30;1792.00;;;;;;5073143;28;20025;-75
2023/10/13 11:51:17;;;;;;;15.13;8.52;;;691.30;1792.00;;;;;;5079404;28;20028;-70
2023/10/13 11:53:51;;;;;;;18.17;8.02;;;691.40;1766.40;;;;;;5072817;28;20028;-74
2023/10/13 11:56:20;;;;;;;11.93;8.05;;;691.50;1766.40;;;;;;5069083;28;20043;-76
2023/10/13 11:58:47;;;;;;;14.05;9.23;;;691.60;1766.40;;;;;;5078733;28;20141;-75
2023/10/13 12:11:41;;;;;;;15.32;9.10;;;691.60;1792.00;;;;;;5081925;28;20031;-75
2023/10/13 12:14:17;;;;;;;16.50;7.97;;;691.60;1817.60;;;;;;5077252;28;20394;-75
2023/10/13 12:16:51;;;;;;;17.30;10.13;;;691.60;1792.00;;;;;;5079915;28;20028;-75
2023/10/13 12:19:17;;;;;;;15.55;9.52;;;691.50;1817.60;;;;;;5072423;28;20032;-70
2023/10/13 12:21:48;;;;;;;16.65;9.80;;;691.30;1843.20;;;;;;5078094;28;20021;-73
2023/10/13 12:24:39;;;;;;;18.90;9.77;;;691.50;1843.20;;;;;;5076413;28;20654;-74
2023/10/13 12:27:23;;;;;;;19.38;10.98;;;691.50;1843.20;;;;;;5082882;28;20031;-74
2023/10/13 12:29:51;;;;;;;18.75;9.27;;;691.50;1868.80;;;;;;5071477;28;20059;-75
2023/10/13 12:32:22;;;;;;;16.40;9.98;;;691.60;1868.80;;;;;;5075216;28;20025;-74
2023/10/13 12:35:16;;;;;;;23.83;10.60;;;691.40;1868.80;;;;;;5082815;28;20036;-73
2023/10/13 12:54:13;;;;;;;20.17;12.52;;;691.40;1920.00;;;;;;5011958;28;20056;-72
2023/10/13 12:56:42;;;;;;;20.08;11.70;;;691.30;1920.00;;;;;;5005982;28;20550;-73
2023/10/13 12:59:15;;;;;;;24.58;11.52;;;691.30;1894.40;;;;;;5018248;28;20045;-72
2023/10/13 13:01:44;;;;;;;20.40;11.98;;;691.30;1920.00;;;;;;5020305;28;20073;-74
2023/10/13 13:04:25;;;;;;;21.42;12.23;;;691.30;1894.40;;;;;;5025625;28;20602;-68
2023/10/13 13:06:51;;;;;;;20.60;12.25;;;691.20;1920.00;;;;;;5012161;28;20064;-74
2023/10/13 13:09:25;;;;;;;20.48;10.27;;;691.20;1920.00;;;;;;5020592;28;20079;-70
2023/10/13 13:11:57;;;;;;;20.85;11.77;;;691.20;1920.00;;;;;;5016930;28;20049;-72
2023/10/13 13:14:28;;;;;;;15.73;11.03;;;691.30;1894.40;;;;;;5016438;28;20509;-72
2023/10/13 13:17:06;;;;;;;23.25;11.90;;;691.20;1894.40;;;;;;5026654;28;20053;-68
2023/10/13 13:19:40;;;;;;;21.02;10.63;;;691.30;1894.40;;;;;;5017939;28;20029;-70
2023/10/13 13:22:13;;;;;;;19.38;10.70;;;691.30;1894.40;;;;;;5018735;28;20394;-75
2023/10/13 13:24:46;;;;;;;19.65;10.60;;;691.20;1868.80;;;;;;5014722;28;20037;-74
2023/10/13 13:27:22;;;;;;;20.58;11.07;;;666.50;1894.40;;;;;;5008889;28;20025;-75
2023/10/13 13:29:48;;;;;;;18.92;11.20;;;691.30;1868.80;;;;;;5016962;28;20470;-75
2023/10/13 13:32:23;;;;;;;17.90;10.85;;;691.20;1894.40;;;;;;5075252;28;20104;-72
2023/10/13 13:35:07;;;;;;;14.98;9.77;;;691.20;1868.80;;;;;;5093309;28;20373;-75
2023/10/13 13:37:34;;;;;;;15.65;10.82;;;666.50;1868.80;;;;;;5092813;28;20432;-68
2023/10/13 13:43:31;;;;;;;15.90;9.82;;;666.50;1868.80;;;;;;5093201;28;20051;-75
2023/10/13 13:46:01;;;;;;;13.27;10.15;;;666.50;1868.80;;;;;;5093120;28;20377;-71
2023/10/13 13:48:28;;;;;;;15.68;10.27;;;666.40;1894.40;;;;;;5091953;28;20017;-66
2023/10/13 13:51:04;;;;;;;14.80;10.25;;;666.50;1894.40;;;;;;5092475;28;20446;-71
2023/10/13 13:53:34;;;;;;;16.63;10.95;;;666.50;1920.00;;;;;;5092750;28;20016;-68
2023/10/13 13:56:02;;;;;;;18.60;11.32;;;666.40;1920.00;;;;;;5092816;28;20437;-73
2023/10/13 13:58:28;;;;;;;15.95;11.40;;;666.40;1920.00;;;;;;5092670;28;20035;-65
2023/10/13 14:01:15;;;;;;;16.48;11.45;;;666.30;1920.00;;;;;;5092386;28;20071;-64
2023/10/13 14:03:45;;;;;;;20.20;12.48;;;666.20;1945.60;;;;;;5092843;28;20038;-75
2023/10/13 14:06:24;;;;;;;16.20;10.65;;;666.20;1945.60;;;;;;5092530;28;20032;-71
2023/10/13 14:08:55;;;;;;;17.05;11.13;;;666.40;1920.00;;;;;;5092759;28;20016;-73
2023/10/13 14:16:52;;;;;;;20.13;12.05;;;666.30;1920.00;;;;;;5092806;28;20085;-72
2023/10/13 14:19:26;;;;;;;19.23;11.82;;;666.30;1920.00;;;;;;5092126;28;20024;-74
2023/10/13 14:21:56;;;;;;;19.52;11.93;;;666.20;1945.60;;;;;;5092872;28;20481;-71
2023/10/13 14:24:29;;;;;;;16.13;11.48;;;666.20;1945.60;;;;;;5092406;28;20115;-73
2023/10/13 14:26:56;;;;;;;20.17;11.18;;;666.00;1945.60;;;;;;5092600;28;20032;-75
2023/10/13 14:29:26;;;;;;;19.40;12.77;;;666.20;1945.60;;;;;;5092171;28;20040;-75
2023/10/13 14:31:52;;;;;;;19.58;12.38;;;666.20;1945.60;;;;;;5092904;28;20090;-70
2023/10/13 14:34:21;;;;;;;17.65;11.98;;;666.00;1945.60;;;;;;5092490;28;20085;-76
2023/10/13 14:36:48;;;;;;;21.38;11.88;;;666.10;1920.00;;;;;;5092074;28;20101;-72
2023/10/13 14:39:14;;;;;;;25.27;12.85;;;665.90;1920.00;;;;;;5092443;28;20441;-70
2023/10/13 14:41:40;;;;;;;16.60;11.52;;;665.90;1945.60;;;;;;5092000;28;20032;-72
2023/10/13 14:44:07;;;;;;;23.63;13.45;;;666.00;1945.60;;;;;;5092447;28;20036;-73
2023/10/13 14:46:38;;;;;;;27.27;12.30;;;665.90;1945.60;;;;;;5092058;28;20024;-73
2023/10/13 14:49:05;;;;;;;21.70;12.40;;;665.80;1945.60;;;;;;5092438;28;20025;-65
2023/10/13 14:51:31;;;;;;;21.88;13.38;;;665.70;1945.60;;;;;;5092129;28;20477;-72
2023/10/13 14:53:59;;;;;;;21.63;14.07;;;665.70;1971.20;;;;;;5092118;28;20031;-74
2023/10/13 14:59:48;;;;;;;21.95;14.80;;;665.70;1971.20;;;;;;5092630;28;20027;-71
2023/10/13 15:02:13;;;;;;;21.17;15.38;;;665.60;1971.20;;;;;;5077290;28;20035;-67
2023/10/13 15:04:39;;;;;;;20.83;14.00;;;640.90;1971.20;;;;;;5095674;28;20062;-74
2023/10/13 15:07:06;;;;;;;22.50;14.90;;;640.80;1945.60;;;;;;5095499;28;20150;-72
2023/10/13 15:09:32;;;;;;;27.92;14.27;;;640.80;1971.20;;;;;;5095760;28;20024;-74
2023/10/13 15:11:57;;;;;;;21.27;13.32;;;640.70;1971.20;;;;;;5076927;28;20033;-74
2023/10/13 15:14:24;;;;;;;18.33;14.05;;;640.70;1971.20;;;;;;5095478;28;20027;-67
2023/10/13 15:16:51;;;;;;;27.73;15.65;;;640.70;1971.20;;;;;;5095573;28;20036;-73
2023/10/13 15:19:17;;;;;;;21.40;15.40;;;640.70;1971.20;;;;;;5095634;28;20093;-72
2023/10/13 15:21:48;;;;;;;21.52;15.43;;;640.70;1971.20;;;;;;5095283;28;20048;-73
2023/10/13 15:24:15;;;;;;;23.05;15.10;;;640.60;1971.20;;;;;;5095381;28;20495;-65
2023/10/13 15:30:04;;;;;;;27.10;16.45;;;640.50;1996.80;;;;;;5095154;28;20062;-73
2023/10/13 15:32:41;;;;;;;29.30;15.63;;;640.40;1996.80;;;;;;5095592;28;20106;-76
2023/10/13 15:35:12;;;;;;;22.73;17.05;;;640.30;1996.80;;;;;;5095016;28;20500;-75
2023/10/13 15:37:38;;;;;;;20.75;16.65;;;640.20;2022.40;;;;;;5094918;28;20150;-72
2023/10/13 15:40:04;;;;;;;25.77;17.45;;;640.10;2048.00;;;;;;5095362;28;20020;-71
2023/10/13 15:42:30;;;;;;;26.60;17.60;;;640.00;2048.00;;;;;;5095059;28;20111;-73
2023/10/13 15:44:56;;;;;;;26.10;19.00;;;615.30;2048.00;;;;;;5094879;28;20056;-74
2023/10/13 15:47:22;;;;;;;33.45;18.63;;;615.30;2048.00;;;;;;5094850;28;20481;-72
2023/10/13 15:49:47;;;;;;;28.40;19.05;;;615.20;2073.60;;;;;;5094806;28;20032;-74
2023/10/13 15:52:15;;;;;;;32.92;19.58;;;615.00;2099.20;;;;;;5095167;28;20391;-73
2023/10/13 15:54:41;;;;;;;29.30;19.20;;;614.90;2099.20;;;;;;5094699;28;20047;-70
2023/10/13 16:00:29;;;;;;;40.60;22.05;;;614.80;2124.80;;;;;;5094830;28;20111;-73
2023/10/13 16:02:56;;;;;;;35.83;23.95;;;614.60;2150.40;;;;;;5094946;28;20020;-73
2023/10/13 16:05:24;;;;;;;35.65;26.33;;;614.50;2150.40;;;;;;5094398;28;20069;-75
2023/10/13 16:07:52;;;;;;;31.83;24.20;;;614.40;2176.00;;;;;;5094402;28;20054;-72
2023/10/13 16:10:21;;;;;;;34.17;23.63;;;589.70;2201.60;;;;;;5094623;28;20072;-74
2023/10/13 16:12:47;;;;;;;34.42;24.73;;;589.60;2227.20;;;;;;5093630;28;20077;-73
2023/10/13 16:15:15;;;;;;;48.95;33.65;;;589.40;2252.80;;;;;;5094203;28;20032;-74
2023/10/13 16:17:41;;;;;;;32.30;24.05;;;589.40;2252.80;;;;;;5094707;28;20097;-69
2023/10/13 16:20:17;;;;;;;33.75;22.60;;;589.30;2252.80;;;;;;5094111;28;20031;-57